Time;durP1;ratioP1;P1;durP2;ratioP2;P2;SDS_P1;SDS_P2;PMS_P1;PMS_P2;Temp;Humidity;BMP_temperature;BMP_pressure;BME280_temperature;BME280_humidity;BME280_pressure;Samples;Min_cycle;Max_cycle;Signal;HPM_P1;HPM_P2
2021/07/12 00:00:16;;;;;;;14.75;9.65;;;;;;;19.65;95.85;97268.91;4984057;28;20031;-78
2021/07/12 00:02:42;;;;;;;13.55;9.80;;;;;;;19.55;96.79;97264.56;4984117;28;20474;-78
2021/07/12 00:05:08;;;;;;;13.40;9.65;;;;;;;19.57;96.95;97268.84;4952448;29;20111;-78
2021/07/12 00:07:34;;;;;;;17.33;10.13;;;;;;;19.45;97.96;97262.81;4967858;28;20059;-78
2021/07/12 00:10:00;;;;;;;16.27;10.88;;;;;;;19.44;98.49;97271.13;4952337;29;20074;-78
2021/07/12 00:12:25;;;;;;;15.50;10.10;;;;;;;19.38;99.24;97258.97;4968063;28;20034;-78
2021/07/12 00:14:51;;;;;;;19.80;10.57;;;;;;;19.41;99.32;97261.41;4967943;28;20082;-78
2021/07/12 00:17:17;;;;;;;20.10;10.55;;;;;;;19.37;99.44;97256.44;4953593;28;20504;-78
2021/07/12 00:19:42;;;;;;;24.33;11.77;;;;;;;19.33;100.00;97265.88;4984103;28;20031;-78
2021/07/12 00:22:08;;;;;;;17.23;10.23;;;;;;;19.25;100.00;97265.81;4984034;28;20475;-78
2021/07/12 00:24:33;;;;;;;19.40;9.85;;;;;;;19.31;100.00;97262.47;4967984;28;20040;-78
2021/07/12 00:26:59;;;;;;;19.73;10.70;;;;;;;19.30;100.00;97261.63;4967931;28;20035;-78
2021/07/12 00:29:25;;;;;;;13.75;9.98;;;;;;;19.24;100.00;97253.25;5000504;28;20423;-78
2021/07/12 00:31:50;;;;;;;15.52;9.90;;;;;;;19.27;100.00;97253.81;4952887;28;20039;-78
2021/07/12 00:34:16;;;;;;;21.80;10.68;;;;;;;19.20;100.00;97262.69;4967753;28;20031;-78
2021/07/12 00:36:41;;;;;;;14.43;10.90;;;;;;;19.28;100.00;97251.94;4967684;28;20035;-78
2021/07/12 00:39:07;;;;;;;13.88;10.02;;;;;;;19.34;99.50;97254.91;4952020;29;20078;-78
2021/07/12 00:41:35;;;;;;;11.88;10.00;;;;;;;19.28;98.69;97251.94;4951554;29;20035;-78
2021/07/12 00:44:01;;;;;;;12.77;9.70;;;;;;;19.35;98.26;97261.16;4952949;28;20038;-78
2021/07/12 00:46:26;;;;;;;15.88;10.43;;;;;;;19.33;97.90;97263.16;4954637;29;20039;-78
2021/07/12 00:48:52;;;;;;;14.90;9.25;;;;;;;19.27;98.04;97255.66;4955567;29;20046;-78
2021/07/12 00:51:18;;;;;;;13.07;9.38;;;;;;;19.27;97.87;97253.81;4971499;28;20035;-78
2021/07/12 00:53:43;;;;;;;12.55;9.48;;;;;;;19.34;97.92;97256.75;5003990;28;20031;-78
2021/07/12 00:56:09;;;;;;;12.88;9.80;;;;;;;19.36;98.84;97252.00;4971680;28;20454;-78
2021/07/12 00:58:35;;;;;;;12.68;9.98;;;;;;;19.35;98.90;97244.88;4971677;28;20042;-78
2021/07/12 01:01:04;;;;;;;16.67;10.30;;;;;;;19.31;100.00;97254.34;4939240;29;20038;-78
2021/07/12 01:03:30;;;;;;;18.33;10.32;;;;;;;19.36;98.75;97258.28;4971461;28;20491;-78
2021/07/12 01:05:56;;;;;;;19.00;10.48;;;;;;;19.33;99.20;97257.75;5003689;28;20038;-78
2021/07/12 01:08:22;;;;;;;14.95;10.23;;;;;;;19.33;99.80;97255.03;4971281;28;20557;-78
2021/07/12 01:11:11;;;;;;;15.15;10.02;;;;;;;19.37;99.38;97265.44;4953344;28;20442;-78
2021/07/12 01:13:44;;;;;;;12.10;10.20;;;;;;;19.37;99.57;97261.84;4939376;29;20030;-78
2021/07/12 01:16:17;;;;;;;14.98;10.55;;;;;;;19.36;99.41;97268.28;4955214;29;20026;-78
2021/07/12 01:18:52;;;;;;;;;;;;;;;19.36;99.85;97276.41;4956636;28;20035;-78
2021/07/12 01:21:46;;;;;;;17.70;10.35;;;;;;;19.31;100.00;97279.63;5003569;28;19929;-78
2021/07/12 01:24:30;;;;;;;16.77;10.52;;;;;;;19.33;100.00;97266.75;4956309;28;20098;-78
2021/07/12 01:27:14;;;;;;;15.40;10.07;;;;;;;19.32;100.00;97267.75;4970838;28;20027;-78
2021/07/12 01:30:11;;;;;;;23.42;10.48;;;;;;;19.22;99.48;97277.84;4987222;28;20034;-78
2021/07/12 01:32:43;;;;;;;19.20;10.52;;;;;;;19.20;98.57;97278.97;4938915;29;20078;-77
2021/07/12 01:35:23;;;;;;;14.00;10.45;;;;;;;18.94;99.78;97285.19;4986946;28;20051;-77
2021/07/12 01:38:42;;;;;;;13.23;9.98;;;;;;;18.85;100.00;97283.38;4955832;28;20031;-77
2021/07/12 01:41:49;;;;;;;15.70;10.10;;;;;;;18.79;100.00;97291.28;4953586;28;20118;-77
2021/07/12 01:44:33;;;;;;;16.98;10.40;;;;;;;18.72;100.00;97296.44;4916749;29;20036;-77
2021/07/12 01:47:07;;;;;;;15.60;10.45;;;;;;;18.57;100.00;97287.13;4913369;29;20036;-79
2021/07/12 01:49:35;;;;;;;16.58;10.30;;;;;;;18.54;100.00;97298.25;4952974;28;20039;-78
2021/07/12 01:52:26;;;;;;;17.65;10.43;;;;;;;18.54;100.00;97298.25;4954253;29;20034;-78
2021/07/12 01:55:16;;;;;;;19.05;9.93;;;;;;;18.55;100.00;97297.22;4955524;28;20118;-77
2021/07/12 01:58:02;;;;;;;14.93;10.18;;;;;;;18.43;100.00;97292.97;4955372;29;20594;-77
2021/07/12 02:00:29;;;;;;;13.95;10.70;;;;;;;18.25;100.00;97287.50;4970550;28;20031;-76
2021/07/12 02:02:56;;;;;;;17.05;10.80;;;;;;;18.33;100.00;97293.03;4954257;29;20432;-76
2021/07/12 02:05:23;;;;;;;20.35;10.70;;;;;;;18.31;100.00;97291.47;4938309;29;20423;-77
2021/07/12 02:07:50;;;;;;;19.27;10.80;;;;;;;18.28;100.00;97294.47;4938036;29;20034;-77
2021/07/12 02:10:20;;;;;;;15.70;10.95;;;;;;;18.23;100.00;97300.34;4986402;28;20114;-77
2021/07/12 02:12:49;;;;;;;20.52;11.95;;;;;;;18.29;100.00;97293.50;4954255;29;20011;-77
2021/07/12 02:15:14;;;;;;;19.65;11.77;;;;;;;18.25;100.00;97289.34;4950974;29;20027;-77
2021/07/12 02:17:41;;;;;;;19.33;11.15;;;;;;;18.19;100.00;97284.53;4982100;28;20027;-78
2021/07/12 02:20:08;;;;;;;18.33;11.48;;;;;;;18.14;100.00;97290.41;4953924;29;20459;-77
2021/07/12 02:22:35;;;;;;;13.88;10.48;;;;;;;18.13;100.00;97293.25;4937975;29;20407;-77
2021/07/12 02:25:02;;;;;;;22.67;11.80;;;;;;;18.04;100.00;97288.72;4936162;29;20067;-77
2021/07/12 02:27:28;;;;;;;18.33;11.15;;;;;;;17.81;100.00;97256.59;4953872;29;20027;-77
2021/07/12 02:29:54;;;;;;;18.27;10.43;;;;;;;17.91;100.00;97272.81;4953692;29;20563;-77
2021/07/12 02:32:20;;;;;;;15.63;11.30;;;;;;;18.03;100.00;97293.28;4969705;28;20463;-77
2021/07/12 02:34:46;;;;;;;19.10;11.70;;;;;;;17.98;100.00;97283.91;4969616;28;20062;-77
2021/07/12 02:37:15;;;;;;;23.23;13.00;;;;;;;17.99;100.00;97282.91;4985931;28;20062;-78
2021/07/12 02:39:41;;;;;;;26.05;11.90;;;;;;;17.93;100.00;97278.09;4937680;29;20388;-77
2021/07/12 02:42:11;;;;;;;15.88;11.52;;;;;;;17.92;100.00;97273.66;4985636;28;20479;-78
2021/07/12 02:44:37;;;;;;;23.55;11.82;;;;;;;17.94;100.00;97283.34;4986022;28;20115;-78
2021/07/12 02:47:03;;;;;;;19.25;11.93;;;;;;;17.96;100.00;97280.50;4985555;28;20114;-78
2021/07/12 02:49:29;;;;;;;18.67;11.65;;;;;;;18.03;100.00;97285.16;4969504;28;20117;-78
2021/07/12 02:51:57;;;;;;;18.95;10.73;;;;;;;17.98;100.00;97281.19;4969534;28;20562;-77
2021/07/12 02:54:27;;;;;;;14.25;11.38;;;;;;;17.95;100.00;97279.66;4953317;29;20406;-77
2021/07/12 02:56:52;;;;;;;21.23;10.93;;;;;;;18.00;100.00;97287.31;4969500;28;20402;-79
2021/07/12 02:59:18;;;;;;;21.95;10.60;;;;;;;17.96;100.00;97289.47;4965967;28;20110;-78
2021/07/12 03:01:44;;;;;;;14.07;11.27;;;;;;;17.86;100.00;97283.25;4964888;28;20384;-78
2021/07/12 03:04:10;;;;;;;20.80;10.43;;;;;;;17.88;100.00;97283.94;4953097;29;20031;-78
2021/07/12 03:06:35;;;;;;;16.00;10.75;;;;;;;17.83;100.00;97281.69;4969195;28;20019;-78
2021/07/12 03:09:07;;;;;;;18.85;10.90;;;;;;;17.81;100.00;97289.06;4967972;28;20038;-79
2021/07/12 03:11:42;;;;;;;24.05;12.55;;;;;;;17.90;100.00;97291.91;4969070;28;20024;-78
2021/07/12 03:14:10;;;;;;;19.98;13.82;;;;;;;17.97;100.00;97296.59;4952618;29;20047;-78
2021/07/12 03:16:37;;;;;;;26.90;12.75;;;;;;;17.85;100.00;97295.91;4954166;28;20565;-78
2021/07/12 03:19:05;;;;;;;24.17;11.75;;;;;;;17.92;100.00;97296.19;4968826;28;20035;-79
2021/07/12 03:21:31;;;;;;;23.65;11.90;;;;;;;18.00;100.00;97296.28;4968863;28;20097;-78
2021/07/12 03:23:58;;;;;;;21.10;12.18;;;;;;;17.98;100.00;97300.16;4965633;28;20122;-78
2021/07/12 03:26:24;;;;;;;22.23;13.15;;;;;;;17.94;100.00;97299.59;4977171;28;20023;-77
2021/07/12 03:28:53;;;;;;;28.08;14.20;;;;;;;18.04;100.00;97304.97;4952692;29;20042;-78
2021/07/12 03:31:22;;;;;;;36.72;15.18;;;;;;;18.11;100.00;97300.69;4968550;28;20097;-78
2021/07/12 03:33:50;;;;;;;33.55;14.82;;;;;;;18.12;100.00;97316.75;4984813;28;20027;-77
2021/07/12 03:36:15;;;;;;;31.50;14.93;;;;;;;18.10;100.00;97309.78;4936201;29;20058;-78
2021/07/12 03:38:42;;;;;;;30.92;14.40;;;;;;;18.15;100.00;97307.53;4968510;28;20102;-78
2021/07/12 03:41:08;;;;;;;24.75;13.45;;;;;;;18.15;100.00;97307.53;4968100;28;20035;-77
2021/07/12 03:43:34;;;;;;;24.92;13.35;;;;;;;18.21;100.00;97306.94;4968359;28;20027;-76
2021/07/12 03:46:00;;;;;;;21.58;12.45;;;;;;;18.25;100.00;97311.03;4968389;28;20035;-77
2021/07/12 03:48:43;;;;;;;20.77;13.27;;;;;;;18.28;100.00;97313.44;4960424;28;20037;-78
2021/07/12 03:51:11;;;;;;;17.50;11.48;;;;;;;18.31;100.00;97311.28;4968545;28;20039;-78
2021/07/12 03:53:37;;;;;;;20.73;12.52;;;;;;;18.32;100.00;97312.16;4968520;28;20407;-78
2021/07/12 03:56:03;;;;;;;20.38;11.25;;;;;;;18.49;100.00;97310.53;4968643;28;20038;-77
2021/07/12 03:58:29;;;;;;;17.33;11.35;;;;;;;18.55;100.00;97304.53;4968699;28;20059;-77
2021/07/12 04:00:55;;;;;;;22.13;12.18;;;;;;;18.62;100.00;97311.91;4965074;28;20028;-77
2021/07/12 04:03:20;;;;;;;23.38;11.77;;;;;;;18.77;100.00;97314.94;4967507;28;20481;-78
2021/07/12 04:05:46;;;;;;;22.50;11.65;;;;;;;18.82;100.00;97318.06;4968270;28;20030;-78
2021/07/12 04:08:11;;;;;;;21.45;11.25;;;;;;;18.93;100.00;97317.84;4968169;28;20419;-78
2021/07/12 04:10:38;;;;;;;18.23;11.68;;;;;;;19.03;98.75;97309.66;4952530;29;20443;-78
2021/07/12 04:13:04;;;;;;;23.77;12.05;;;;;;;19.17;98.16;97325.38;4968434;28;20410;-77
2021/07/12 04:15:29;;;;;;;20.30;12.35;;;;;;;19.23;96.68;97319.34;4968088;28;20027;-78
2021/07/12 04:17:55;;;;;;;21.38;12.10;;;;;;;19.19;95.85;97316.13;4965223;28;20108;-78
2021/07/12 04:20:21;;;;;;;24.77;12.15;;;;;;;19.29;94.46;97324.16;4980592;28;20039;-83
2021/07/12 04:22:46;;;;;;;22.40;12.45;;;;;;;19.34;95.28;97335.41;4998504;28;20125;-77
2021/07/12 04:25:13;;;;;;;30.25;11.75;;;;;;;19.34;94.66;97320.00;4949515;28;20042;-78
2021/07/12 04:27:39;;;;;;;23.15;12.63;;;;;;;19.42;94.86;97330.94;4983691;28;20039;-80
2021/07/12 04:30:07;;;;;;;24.63;13.80;;;;;;;19.48;94.56;97327.63;4936364;29;20034;-80
2021/07/12 04:32:32;;;;;;;46.72;13.63;;;;;;;19.54;94.61;97326.13;4948901;29;20057;-79
2021/07/12 04:34:58;;;;;;;45.40;25.10;;;;;;;19.63;93.81;97327.91;4979661;28;20138;-80
2021/07/12 04:37:24;;;;;;;78.50;51.50;;;;;;;19.62;93.10;97334.34;4951759;29;20046;-78
2021/07/12 04:39:49;;;;;;;81.53;49.80;;;;;;;19.71;92.95;97333.41;4952330;29;20031;-78
2021/07/12 04:42:15;;;;;;;73.60;37.13;;;;;;;19.81;92.77;97327.91;4984032;28;20122;-77
2021/07/12 04:44:41;;;;;;;51.58;23.98;;;;;;;19.98;91.91;97329.72;4968141;28;20032;-77
2021/07/12 04:47:07;;;;;;;43.63;19.25;;;;;;;20.12;90.64;97342.72;4968142;28;20097;-79
2021/07/12 04:49:32;;;;;;;30.83;17.00;;;;;;;20.15;90.55;97341.56;4967748;28;20026;-77
2021/07/12 04:51:58;;;;;;;35.65;16.73;;;;;;;20.20;90.25;97339.22;4984308;28;20031;-78
2021/07/12 04:54:23;;;;;;;36.75;17.52;;;;;;;20.27;89.50;97338.44;4968049;28;20480;-79
2021/07/12 04:56:49;;;;;;;36.95;18.65;;;;;;;20.82;86.84;97346.22;4968118;28;20062;-79
2021/07/12 04:59:17;;;;;;;34.53;16.92;;;;;;;21.73;82.35;97363.47;4967481;28;20031;-79
2021/07/12 05:01:42;;;;;;;32.55;16.80;;;;;;;23.22;73.39;97359.16;4967203;28;20111;-79
2021/07/12 05:04:08;;;;;;;26.42;16.40;;;;;;;24.27;68.21;97362.03;4983939;28;20126;-79
2021/07/12 05:06:35;;;;;;;39.95;17.40;;;;;;;25.47;62.44;97360.00;4951373;29;20042;-78
2021/07/12 05:09:01;;;;;;;27.05;14.38;;;;;;;26.63;58.04;97363.31;4967685;28;20097;-79
2021/07/12 05:11:29;;;;;;;62.38;41.92;;;;;;;26.99;56.37;97371.38;4967547;28;20133;-80
2021/07/12 05:13:54;;;;;;;35.67;20.23;;;;;;;28.37;51.50;97368.09;4967551;28;20455;-79
2021/07/12 05:16:20;;;;;;;33.42;15.65;;;;;;;29.01;49.74;97373.78;4951632;29;20111;-79
2021/07/12 05:18:47;;;;;;;31.20;16.23;;;;;;;29.04;48.19;97383.50;4967570;28;20031;-79
2021/07/12 05:21:12;;;;;;;25.77;14.68;;;;;;;30.40;45.88;97385.94;4967341;28;20039;-80
2021/07/12 05:23:38;;;;;;;25.73;14.43;;;;;;;31.30;42.96;97381.72;4999995;28;20035;-79
2021/07/12 05:26:04;;;;;;;26.02;13.32;;;;;;;31.10;42.84;97384.69;4967739;28;20036;-80
2021/07/12 05:28:31;;;;;;;35.03;12.30;;;;;;;31.87;41.36;97390.66;4967431;28;20031;-78
2021/07/12 05:30:57;;;;;;;26.63;11.07;;;;;;;32.52;40.32;97381.38;4968184;28;20027;-78
2021/07/12 05:33:22;;;;;;;19.88;11.32;;;;;;;33.26;38.89;97380.78;4938911;29;20479;-77
2021/07/12 05:35:48;;;;;;;21.65;10.50;;;;;;;33.58;37.43;97386.75;4954886;29;20130;-81
2021/07/12 05:38:13;;;;;;;24.08;10.88;;;;;;;34.07;37.04;97381.69;4987380;28;20031;-82
2021/07/12 05:40:39;;;;;;;25.92;10.30;;;;;;;34.45;36.07;97386.63;4955058;29;20031;-82
2021/07/12 05:43:05;;;;;;;51.55;37.72;;;;;;;34.33;35.65;97395.03;4987404;28;20042;-80
2021/07/12 05:45:30;;;;;;;38.33;11.80;;;;;;;35.12;35.13;97388.38;4970621;28;20042;-80
2021/07/12 05:47:56;;;;;;;26.33;14.40;;;;;;;36.16;33.59;97385.66;4970690;28;20039;-80
2021/07/12 05:50:22;;;;;;;16.15;9.95;;;;;;;34.70;34.84;97384.31;4954532;29;20086;-79
2021/07/12 05:52:48;;;;;;;19.77;9.05;;;;;;;36.05;33.42;97397.78;4970505;28;20031;-81
2021/07/12 05:55:14;;;;;;;25.02;9.80;;;;;;;37.09;31.65;97389.94;4954708;29;20562;-81
2021/07/12 05:57:40;;;;;;;22.70;9.80;;;;;;;37.40;30.78;97387.09;4986598;28;20384;-81
2021/07/12 06:00:07;;;;;;;19.70;10.90;;;;;;;37.69;30.16;97398.72;4986981;28;20041;-80
2021/07/12 06:02:33;;;;;;;24.27;9.63;;;;;;;35.28;33.92;97397.81;4938252;29;20458;-80
2021/07/12 06:04:59;;;;;;;18.58;10.13;;;;;;;35.06;34.29;97403.28;4970604;28;20035;-80
2021/07/12 06:07:24;;;;;;;29.38;14.38;;;;;;;36.34;32.65;97400.06;4970479;28;20039;-79
2021/07/12 06:09:50;;;;;;;30.15;18.23;;;;;;;37.60;30.51;97402.31;4986460;28;20031;-80
2021/07/12 06:12:15;;;;;;;19.52;9.70;;;;;;;37.86;30.19;97409.72;4950932;28;20032;-80
2021/07/12 06:14:41;;;;;;;24.95;10.57;;;;;;;38.73;29.62;97409.75;4969153;28;20586;-80
2021/07/12 06:17:07;;;;;;;49.70;39.95;;;;;;;37.58;30.62;97401.75;4970346;28;20027;-80
2021/07/12 06:19:33;;;;;;;831.97;70.95;;;;;;;37.60;30.23;97405.09;4954024;29;20035;-81
2021/07/12 06:21:58;;;;;;;15.57;9.45;;;;;;;38.54;29.09;97403.03;4954237;29;20039;-80
2021/07/12 06:24:24;;;;;;;21.08;9.90;;;;;;;38.05;29.29;97408.16;4955509;28;20041;-80
2021/07/12 06:26:49;;;;;;;21.75;9.82;;;;;;;38.96;28.34;97406.44;5002193;28;20471;-80
2021/07/12 06:29:15;;;;;;;21.67;9.10;;;;;;;37.43;30.21;97411.69;4970076;28;20035;-80
2021/07/12 06:31:40;;;;;;;14.40;10.40;;;;;;;36.89;31.17;97419.31;4969983;28;20062;-80
2021/07/12 06:34:06;;;;;;;20.77;11.48;;;;;;;35.72;32.74;97421.84;4953852;29;20031;-80
2021/07/12 06:36:32;;;;;;;19.85;8.77;;;;;;;36.26;32.32;97422.00;4986087;28;20035;-80
2021/07/12 06:38:57;;;;;;;136.05;115.25;;;;;;;36.24;32.96;97415.84;4986173;28;20447;-81
2021/07/12 06:41:23;;;;;;;26.52;10.55;;;;;;;37.41;30.50;97401.88;4953611;29;20035;-83
2021/07/12 06:43:51;;;;;;;15.63;8.13;;;;;;;37.67;30.22;97405.72;4953452;28;20049;-80
2021/07/12 06:46:17;;;;;;;12.52;8.25;;;;;;;38.37;29.37;97405.22;4985895;28;20034;-80
2021/07/12 06:48:43;;;;;;;10.13;7.82;;;;;;;39.85;27.09;97404.97;4969400;28;20475;-81
2021/07/12 06:51:09;;;;;;;25.52;17.08;;;;;;;39.74;27.54;97401.38;4969565;28;20511;-80
2021/07/12 06:53:35;;;;;;;13.02;9.70;;;;;;;39.74;27.41;97406.97;4985714;28;20035;-79
2021/07/12 06:56:01;;;;;;;14.32;8.02;;;;;;;39.74;27.53;97409.78;4969405;28;20034;-80
2021/07/12 06:58:27;;;;;;;10.43;8.32;;;;;;;36.98;30.76;97402.13;4953406;29;20107;-81
2021/07/12 07:00:52;;;;;;;13.55;8.43;;;;;;;38.31;29.10;97407.13;4969127;28;20052;-82
2021/07/12 07:03:18;;;;;;;13.07;8.98;;;;;;;36.67;31.76;97401.00;4985437;28;20030;-81
2021/07/12 07:05:43;;;;;;;11.77;7.60;;;;;;;37.41;30.13;97408.31;4985280;28;20114;-81
2021/07/12 07:08:09;;;;;;;13.23;8.27;;;;;;;37.40;30.54;97412.22;5001712;28;20042;-80
2021/07/12 07:10:34;;;;;;;15.18;9.77;;;;;;;36.84;31.22;97402.56;4985297;28;20039;-81
2021/07/12 07:13:00;;;;;;;11.43;8.73;;;;;;;38.16;29.26;97398.69;4953081;28;20031;-80
2021/07/12 07:15:25;;;;;;;15.77;9.00;;;;;;;38.90;28.14;97401.13;4985621;28;20077;-81
2021/07/12 07:17:52;;;;;;;22.33;7.75;;;;;;;39.66;27.34;97401.94;5001359;28;20035;-80
2021/07/12 07:20:18;;;;;;;21.80;7.95;;;;;;;39.54;27.67;97399.41;4954591;28;20094;-81
2021/07/12 07:22:43;;;;;;;13.20;7.90;;;;;;;41.03;26.21;97404.94;4969058;28;20047;-80
2021/07/12 07:25:09;;;;;;;12.27;7.10;;;;;;;40.67;25.18;97393.09;4968955;28;20491;-81
2021/07/12 07:27:36;;;;;;;19.67;8.15;;;;;;;39.80;26.30;97396.56;4968659;28;20039;-80
2021/07/12 07:30:02;;;;;;;11.90;7.10;;;;;;;38.88;26.96;97398.63;4968795;28;20118;-82
2021/07/12 07:32:28;;;;;;;11.00;7.35;;;;;;;38.92;27.54;97379.28;4968750;28;20070;-81
2021/07/12 07:34:53;;;;;;;7.72;7.03;;;;;;;38.85;27.79;97395.53;4968638;28;20059;-82
2021/07/12 07:37:20;;;;;;;10.35;6.85;;;;;;;40.34;25.80;97408.69;5001439;28;20086;-80
2021/07/12 07:39:45;;;;;;;8.40;7.47;;;;;;;41.58;24.03;97389.53;4968468;28;20037;-80
2021/07/12 07:42:11;;;;;;;16.30;6.93;;;;;;;42.28;24.14;97398.28;4952580;29;20031;-81
2021/07/12 07:44:36;;;;;;;10.98;6.95;;;;;;;40.95;25.29;97392.34;4968612;28;20426;-81
2021/07/12 07:47:02;;;;;;;20.58;8.52;;;;;;;40.66;26.29;97401.81;4968509;28;20479;-80
2021/07/12 07:49:28;;;;;;;18.05;8.07;;;;;;;40.12;26.34;97404.63;4968455;28;20027;-80
2021/07/12 07:51:54;;;;;;;23.80;6.95;;;;;;;40.57;26.04;97395.97;4984464;28;20027;-80
2021/07/12 07:54:20;;;;;;;8.80;6.85;;;;;;;39.79;26.84;97394.88;4953243;28;20392;-80
2021/07/12 07:56:45;;;;;;;11.73;6.70;;;;;;;40.28;26.14;97389.38;4953308;28;20031;-79
2021/07/12 07:59:11;;;;;;;8.82;7.05;;;;;;;38.66;27.79;97388.78;4984824;28;20027;-80
2021/07/12 08:01:36;;;;;;;11.55;6.88;;;;;;;38.79;28.11;97389.09;4968622;28;20039;-80
2021/07/12 08:04:02;;;;;;;12.43;6.68;;;;;;;39.19;28.61;97391.06;4984526;28;20407;-80
2021/07/12 08:06:28;;;;;;;14.85;7.15;;;;;;;40.63;26.93;97397.63;4984642;28;20045;-80
2021/07/12 08:08:54;;;;;;;10.57;7.20;;;;;;;41.15;26.20;97388.53;4984260;28;20063;-80
2021/07/12 08:11:19;;;;;;;11.52;6.68;;;;;;;40.81;24.42;97379.25;4953653;28;20498;-81
2021/07/12 08:13:45;;;;;;;12.40;6.22;;;;;;;40.93;25.43;97377.78;4968169;28;20483;-80
2021/07/12 08:16:12;;;;;;;13.18;6.50;;;;;;;41.22;24.95;97376.97;4985113;28;20031;-82
2021/07/12 08:18:37;;;;;;;12.73;6.97;;;;;;;41.74;24.68;97381.78;4968271;28;20106;-81
2021/07/12 08:21:04;;;;;;;8.38;6.10;;;;;;;42.14;22.83;97370.06;5000387;28;20098;-81
2021/07/12 08:23:29;;;;;;;14.25;6.68;;;;;;;41.84;24.22;97376.88;4932742;29;20031;-82
2021/07/12 08:25:55;;;;;;;10.75;6.97;;;;;;;42.71;22.49;97373.78;4982596;28;20051;-81
2021/07/12 08:28:24;;;;;;;9.45;6.68;;;;;;;43.79;21.80;97362.03;4968508;28;20027;-82
2021/07/12 08:30:51;;;;;;;10.00;6.20;;;;;;;43.71;21.97;97368.38;4951693;29;20038;-82
2021/07/12 08:33:16;;;;;;;8.35;6.05;;;;;;;43.53;22.12;97366.50;4952036;29;20102;-82
2021/07/12 08:35:42;;;;;;;10.55;8.00;;;;;;;43.28;23.13;97369.75;4984165;28;20139;-81
2021/07/12 08:38:08;;;;;;;14.18;7.45;;;;;;;42.16;23.49;97365.78;4967783;28;20471;-82
2021/07/12 08:40:37;;;;;;;12.65;6.97;;;;;;;41.64;24.81;97365.88;4968006;28;20110;-81
2021/07/12 08:43:03;;;;;;;16.80;6.68;;;;;;;41.83;24.03;97357.53;4951700;29;20537;-83
2021/07/12 08:45:29;;;;;;;9.13;6.10;;;;;;;43.70;22.02;97359.09;4952034;29;20058;-81
2021/07/12 08:47:55;;;;;;;27.25;6.57;;;;;;;43.50;21.43;97353.03;4984112;28;20035;-81
2021/07/12 08:50:22;;;;;;;12.90;6.70;;;;;;;44.00;21.58;97360.47;4984075;28;20031;-82
2021/07/12 08:52:50;;;;;;;14.30;6.20;;;;;;;44.46;21.01;97353.81;4951446;29;20030;-81
2021/07/12 08:55:16;;;;;;;11.85;6.28;;;;;;;42.54;23.06;97351.78;4967734;28;20098;-82
2021/07/12 08:58:09;;;;;;;12.48;6.22;;;;;;;42.45;23.13;97360.09;4983905;28;20058;-81
2021/07/12 09:00:39;;;;;;;12.40;6.63;;;;;;;40.94;24.40;97354.19;4983831;28;20403;-82
2021/07/12 09:03:19;;;;;;;10.57;6.05;;;;;;;41.42;24.42;97363.56;4983315;28;20466;-81
2021/07/12 09:06:01;;;;;;;11.30;5.70;;;;;;;43.46;22.44;97363.25;4948827;28;20024;-82
2021/07/12 09:08:43;;;;;;;6.88;5.28;;;;;;;41.36;23.26;97364.75;4997297;28;20028;-81
2021/07/12 09:11:23;;;;;;;20.85;6.10;;;;;;;43.44;21.06;97360.72;4987371;28;20194;-81
2021/07/12 09:14:07;;;;;;;13.18;5.80;;;;;;;42.91;21.77;97351.78;4987255;28;20204;-82
2021/07/12 09:16:47;;;;;;;7.97;6.53;;;;;;;42.43;21.57;97351.09;4981056;28;20173;-81
2021/07/12 09:19:28;;;;;;;19.10;13.13;;;;;;;42.44;23.55;97349.94;4987384;28;20039;-82
2021/07/12 09:22:04;;;;;;;14.57;6.57;;;;;;;42.49;21.95;97352.69;4970772;28;20114;-82
2021/07/12 09:24:49;;;;;;;26.55;8.13;;;;;;;43.07;21.21;97350.38;4957664;28;20023;-82
2021/07/12 09:27:23;;;;;;;8.57;5.88;;;;;;;44.27;20.28;97344.69;4955092;29;20031;-82
2021/07/12 09:29:53;;;;;;;10.45;8.82;;;;;;;43.96;19.68;97339.69;4954898;29;20550;-82
2021/07/12 09:32:21;;;;;;;9.18;6.03;;;;;;;43.86;19.82;97344.72;4970874;28;20019;-81
2021/07/12 09:34:48;;;;;;;10.23;6.15;;;;;;;44.09;19.54;97338.81;4970606;28;20082;-82
2021/07/12 09:37:18;;;;;;;11.20;6.60;;;;;;;44.62;19.46;97335.41;4970510;28;20031;-82
2021/07/12 09:39:51;;;;;;;18.30;8.00;;;;;;;46.13;19.07;97337.03;4970589;28;20110;-83
2021/07/12 09:42:28;;;;;;;17.15;6.93;;;;;;;46.54;17.77;97335.78;4970409;28;20027;-83
2021/07/12 09:45:11;;;;;;;11.02;5.40;;;;;;;46.25;17.64;97340.06;4986982;28;20031;-82
2021/07/12 09:47:39;;;;;;;13.25;6.25;;;;;;;45.74;19.09;97340.72;4970508;28;20038;-82
2021/07/12 09:50:09;;;;;;;11.48;5.55;;;;;;;44.52;19.84;97335.63;4954270;29;20112;-81
2021/07/12 09:52:59;;;;;;;13.77;5.70;;;;;;;44.77;20.52;97349.16;4970399;28;20035;-81
2021/07/12 09:55:25;;;;;;;11.27;6.10;;;;;;;44.99;19.65;97357.69;4954612;29;20034;-82
2021/07/12 09:58:10;;;;;;;12.77;5.80;;;;;;;44.67;20.67;97355.06;4955575;28;20027;-82
2021/07/12 10:00:40;;;;;;;13.20;8.57;;;;;;;44.72;20.35;97357.78;4970290;28;20114;-82
2021/07/12 10:03:06;;;;;;;14.00;5.43;;;;;;;44.86;19.86;97349.22;4986489;28;20027;-81
2021/07/12 10:05:32;;;;;;;11.60;5.80;;;;;;;45.55;19.55;97342.09;4970492;28;20375;-81
2021/07/12 10:07:58;;;;;;;14.45;6.32;;;;;;;45.39;19.64;97350.16;4954035;29;20034;-81
2021/07/12 10:10:24;;;;;;;13.88;5.80;;;;;;;46.29;18.66;97352.41;4955063;28;20023;-82
2021/07/12 10:12:49;;;;;;;12.82;5.78;;;;;;;46.86;18.85;97360.00;4986550;28;20558;-81
2021/07/12 10:15:17;;;;;;;6.85;6.05;;;;;;;47.60;18.13;97357.72;4955106;28;20110;-82
2021/07/12 10:17:44;;;;;;;14.80;5.97;;;;;;;46.76;18.34;97355.47;4953760;28;20023;-81
2021/07/12 10:20:11;;;;;;;98.97;9.63;;;;;;;45.51;18.94;97343.88;4985815;28;20517;-83
2021/07/12 10:22:39;;;;;;;10.38;5.65;;;;;;;45.05;19.71;97345.09;4953884;28;20063;-82
2021/07/12 10:25:10;;;;;;;16.25;5.55;;;;;;;43.42;21.50;97342.44;4969863;28;20031;-80
2021/07/12 10:27:56;;;;;;;12.50;6.20;;;;;;;41.87;23.13;97330.50;4955023;28;20380;-82
2021/07/12 10:30:25;;;;;;;8.75;5.60;;;;;;;40.57;23.77;97348.28;4969843;28;20039;-81
2021/07/12 10:32:53;;;;;;;7.10;5.50;;;;;;;41.53;23.47;97331.41;4953638;29;20027;-82
2021/07/12 10:35:40;;;;;;;14.88;6.30;;;;;;;42.05;22.70;97333.34;4969298;28;20497;-82
2021/07/12 10:38:07;;;;;;;10.40;6.38;;;;;;;41.15;23.47;97334.34;4985965;28;20483;-82
2021/07/12 10:41:15;;;;;;;7.20;6.07;;;;;;;42.09;22.78;97330.72;4969661;28;20474;-82
2021/07/12 10:43:47;;;;;;;17.50;6.03;;;;;;;41.97;23.50;97334.00;4936455;29;20498;-80
2021/07/12 10:46:26;;;;;;;10.30;5.68;;;;;;;41.09;24.35;97337.19;4967086;28;20507;-80
2021/07/12 10:48:53;;;;;;;7.35;5.80;;;;;;;39.81;24.98;97328.22;4985876;28;20403;-81
2021/07/12 10:51:30;;;;;;;10.20;5.70;;;;;;;41.30;23.57;97334.19;4985588;28;20510;-80
2021/07/12 10:54:14;;;;;;;5.82;5.25;;;;;;;41.82;23.13;97322.09;4969142;28;20482;-81
2021/07/12 10:56:58;;;;;;;11.55;5.65;;;;;;;40.54;24.38;97323.63;4969264;28;20034;-81
2021/07/12 10:59:34;;;;;;;16.13;5.88;;;;;;;39.99;24.80;97344.38;4953053;28;20487;-82
2021/07/12 11:02:25;;;;;;;11.55;5.47;;;;;;;40.00;25.62;97338.47;4985482;28;20035;-81
2021/07/12 11:05:03;;;;;;;11.05;6.32;;;;;;;39.38;25.33;97332.50;4979689;28;20031;-81
2021/07/12 11:07:42;;;;;;;11.30;5.97;;;;;;;40.01;24.73;97331.75;4968760;28;20067;-81
2021/07/12 11:10:26;;;;;;;9.40;5.82;;;;;;;41.20;23.41;97325.84;4985246;28;20456;-81
2021/07/12 11:13:03;;;;;;;14.93;5.70;;;;;;;41.50;22.60;97319.94;4953054;29;20023;-81
2021/07/12 11:15:31;;;;;;;6.47;5.38;;;;;;;42.96;21.46;97322.66;4984936;28;20034;-82
2021/07/12 11:18:00;;;;;;;8.90;5.43;;;;;;;43.77;21.37;97330.50;4985231;28;20023;-82
2021/07/12 11:20:39;;;;;;;6.25;5.40;;;;;;;44.88;19.37;97324.34;4984360;28;20038;-82
2021/07/12 11:23:05;;;;;;;5.78;5.10;;;;;;;43.81;20.01;97316.63;4953797;28;20034;-81
2021/07/12 11:25:42;;;;;;;11.52;6.13;;;;;;;41.86;21.65;97297.88;4984921;28;20075;-81
2021/07/12 11:28:16;;;;;;;8.45;5.22;;;;;;;40.05;22.60;97299.22;4985312;28;20121;-81